Spring Valley, Texas
Current Conditions -  °F | °C
As of 2:35 AM on Thursday 18 Dec 2014 (Local Time) from KMCJ Reporting Station
NA  
Wind Chill: 16°   Ceiling: NA
Heat Index: 16°   Visibility: NA
Dew Point: 15°   Wind: 9mph
Humidity: 94%   Direction: 80°E
Pressure: 30.03"   Gusts: NA
Location:  29.7698°N, 95.5164°W
Report Text: KMCJ 180835Z AUTO 08008KT 16/15 A3003 RMK AO1
Loading
Personal Weather Stations






























Interactive Weather Map New forecast layout! Learn more

10-Day Weather Forecast

Advertisements
Track Severe Weather on mobile